Terminal Aerodrome Forecast
Issued by NWS Chicago, IL

Home | Current Version | Previous Version | Graphics & Text | Print | Product List | Glossary On
Versions: 1 2 3 4 5 6 7 8 9 10 11 12 13 14 15 16 17 18 19 20 21 22 23 24 25 26 27 28
000
FTUS43 KLOT 231755 AAA
TAFRFD
TAF AMD
KRFD 231755Z 2318/2418 21007KT 6SM -SHRA VCTS BKN025CB OVC050
     FM240100 06006KT 6SM BR VCSH SCT015 OVC040
     FM240500 04005KT P6SM SCT012 OVC020
     FM240900 03007KT 5SM BR BKN006 OVC010=

USA.gov is the U.S. government's official web portal to all federal, state and local government web resources and services.